sensor_id;sensor_type;location;lat;lon;timestamp;temperature;humidity
65369;HTU21D;51970;53.484;49.488;2023-05-29T00:00:15;19.22;73.35
65369;HTU21D;51970;53.484;49.488;2023-05-29T00:05:30;19.13;73.62
65369;HTU21D;51970;53.484;49.488;2023-05-29T00:07:57;19.09;73.80
65369;HTU21D;51970;53.484;49.488;2023-05-29T00:10:41;19.01;74.18
65369;HTU21D;51970;53.484;49.488;2023-05-29T00:13:15;18.99;74.27
65369;HTU21D;51970;53.484;49.488;2023-05-29T00:15:42;18.97;74.35
65369;HTU21D;51970;53.484;49.488;2023-05-29T00:18:09;18.92;74.54
65369;HTU21D;51970;53.484;49.488;2023-05-29T00:20:38;18.92;74.47
65369;HTU21D;51970;53.484;49.488;2023-05-29T00:23:04;18.86;74.73
65369;HTU21D;51970;53.484;49.488;2023-05-29T00:25:47;18.83;74.83
65369;HTU21D;51970;53.484;49.488;2023-05-29T00:28:14;18.78;74.95
65369;HTU21D;51970;53.484;49.488;2023-05-29T00:30:45;18.77;75.09
65369;HTU21D;51970;53.484;49.488;2023-05-29T00:33:36;18.78;74.90
65369;HTU21D;51970;53.484;49.488;2023-05-29T00:36:09;18.78;74.95
65369;HTU21D;51970;53.484;49.488;2023-05-29T00:38:36;18.74;75.04
65369;HTU21D;51970;53.484;49.488;2023-05-29T00:41:02;18.71;75.13
65369;HTU21D;51970;53.484;49.488;2023-05-29T00:43:30;18.68;75.28
65369;HTU21D;51970;53.484;49.488;2023-05-29T00:45:58;18.64;75.39
65369;HTU21D;51970;53.484;49.488;2023-05-29T00:48:44;18.68;75.21
65369;HTU21D;51970;53.484;49.488;2023-05-29T00:51:11;18.74;74.97
65369;HTU21D;51970;53.484;49.488;2023-05-29T00:54:21;18.84;74.51
65369;HTU21D;51970;53.484;49.488;2023-05-29T00:57:23;18.97;73.97
65369;HTU21D;51970;53.484;49.488;2023-05-29T00:59:58;18.99;74.24
65369;HTU21D;51970;53.484;49.488;2023-05-29T01:03:25;19.85;71.32
65369;HTU21D;51970;53.484;49.488;2023-05-29T01:06:26;20.75;67.81
65369;HTU21D;51970;53.484;49.488;2023-05-29T01:09:19;21.42;65.40
65369;HTU21D;51970;53.484;49.488;2023-05-29T01:21:00;19.81;71.13
65369;HTU21D;51970;53.484;49.488;2023-05-29T01:24:49;20.16;70.41
65369;HTU21D;51970;53.484;49.488;2023-05-29T01:28:04;20.47;68.97
65369;HTU21D;51970;53.484;49.488;2023-05-29T01:31:27;20.31;69.68
65369;HTU21D;51970;53.484;49.488;2023-05-29T01:33:58;20.93;67.15
65369;HTU21D;51970;53.484;49.488;2023-05-29T01:37:23;21.75;64.30
65369;HTU21D;51970;53.484;49.488;2023-05-29T01:40:22;22.25;62.82
65369;HTU21D;51970;53.484;49.488;2023-05-29T01:45:52;21.67;64.39
65369;HTU21D;51970;53.484;49.488;2023-05-29T01:48:19;21.17;66.10
65369;HTU21D;51970;53.484;49.488;2023-05-29T01:51:07;21.08;66.71
65369;HTU21D;51970;53.484;49.488;2023-05-29T01:53:52;21.34;65.95
65369;HTU21D;51970;53.484;49.488;2023-05-29T01:56:43;22.27;62.54
65369;HTU21D;51970;53.484;49.488;2023-05-29T01:59:43;21.37;65.37
65369;HTU21D;51970;53.484;49.488;2023-05-29T02:02:31;20.62;68.10
65369;HTU21D;51970;53.484;49.488;2023-05-29T02:09:25;19.84;71.41
65369;HTU21D;51970;53.484;49.488;2023-05-29T02:12:13;19.84;71.54
65369;HTU21D;51970;53.484;49.488;2023-05-29T02:15:01;19.85;71.48
65369;HTU21D;51970;53.484;49.488;2023-05-29T02:17:36;19.96;71.18
65369;HTU21D;51970;53.484;49.488;2023-05-29T02:20:33;20.05;70.74
65369;HTU21D;51970;53.484;49.488;2023-05-29T02:23:47;20.06;70.58
65369;HTU21D;51970;53.484;49.488;2023-05-29T02:27:14;20.10;70.59
65369;HTU21D;51970;53.484;49.488;2023-05-29T02:30:03;20.17;70.27
65369;HTU21D;51970;53.484;49.488;2023-05-29T02:32:42;20.28;70.07
65369;HTU21D;51970;53.484;49.488;2023-05-29T02:35:14;20.34;69.68
65369;HTU21D;51970;53.484;49.488;2023-05-29T02:38:34;20.44;69.26
65369;HTU21D;51970;53.484;49.488;2023-05-29T02:42:11;20.56;68.78
65369;HTU21D;51970;53.484;49.488;2023-05-29T02:45:34;20.60;68.91
65369;HTU21D;51970;53.484;49.488;2023-05-29T02:48:29;20.50;68.93
65369;HTU21D;51970;53.484;49.488;2023-05-29T02:52:07;20.54;68.46
65369;HTU21D;51970;53.484;49.488;2023-05-29T02:59:10;20.53;68.41
65369;HTU21D;51970;53.484;49.488;2023-05-29T03:02:25;20.64;68.24
65369;HTU21D;51970;53.484;49.488;2023-05-29T03:06:23;20.91;67.23
65369;HTU21D;51970;53.484;49.488;2023-05-29T03:09:45;21.25;65.72
65369;HTU21D;51970;53.484;49.488;2023-05-29T03:12:37;21.80;64.28
65369;HTU21D;51970;53.484;49.488;2023-05-29T03:15:51;23.34;60.33
65369;HTU21D;51970;53.484;49.488;2023-05-29T03:18:36;24.53;57.16
65369;HTU21D;51970;53.484;49.488;2023-05-29T03:21:31;25.35;53.88
65369;HTU21D;51970;53.484;49.488;2023-05-29T03:24:29;24.55;56.02
65369;HTU21D;51970;53.484;49.488;2023-05-29T03:27:08;25.66;53.59
65369;HTU21D;51970;53.484;49.488;2023-05-29T03:30:05;24.93;55.26
65369;HTU21D;51970;53.484;49.488;2023-05-29T03:32:54;24.11;57.85
65369;HTU21D;51970;53.484;49.488;2023-05-29T03:35:23;23.32;60.28
65369;HTU21D;51970;53.484;49.488;2023-05-29T03:38:15;22.92;61.70
65369;HTU21D;51970;53.484;49.488;2023-05-29T03:41:16;22.49;63.25
65369;HTU21D;51970;53.484;49.488;2023-05-29T03:44:06;22.44;63.69
65369;HTU21D;51970;53.484;49.488;2023-05-29T03:46:50;22.38;63.82
65369;HTU21D;51970;53.484;49.488;2023-05-29T03:49:48;22.11;64.91
65369;HTU21D;51970;53.484;49.488;2023-05-29T03:52:44;22.13;65.30
65369;HTU21D;51970;53.484;49.488;2023-05-29T03:55:43;22.27;64.39
65369;HTU21D;51970;53.484;49.488;2023-05-29T03:58:42;22.62;63.69
65369;HTU21D;51970;53.484;49.488;2023-05-29T04:01:23;22.83;62.53
65369;HTU21D;51970;53.484;49.488;2023-05-29T04:03:55;22.81;61.93
65369;HTU21D;51970;53.484;49.488;2023-05-29T04:06:35;22.61;63.11
65369;HTU21D;51970;53.484;49.488;2023-05-29T04:09:42;22.72;62.63
65369;HTU21D;51970;53.484;49.488;2023-05-29T04:13:04;22.95;61.55
65369;HTU21D;51970;53.484;49.488;2023-05-29T04:15:52;22.94;61.47
65369;HTU21D;51970;53.484;49.488;2023-05-29T04:18:40;23.09;61.07
65369;HTU21D;51970;53.484;49.488;2023-05-29T04:21:23;23.02;60.73
65369;HTU21D;51970;53.484;49.488;2023-05-29T04:28:08;22.94;61.02
65369;HTU21D;51970;53.484;49.488;2023-05-29T04:31:37;22.94;60.35
65369;HTU21D;51970;53.484;49.488;2023-05-29T04:34:22;22.90;60.59
65369;HTU21D;51970;53.484;49.488;2023-05-29T04:37:06;22.88;60.32
65369;HTU21D;51970;53.484;49.488;2023-05-29T04:39:37;22.99;60.13
65369;HTU21D;51970;53.484;49.488;2023-05-29T04:42:19;23.21;59.15
65369;HTU21D;51970;53.484;49.488;2023-05-29T04:45:25;23.30;58.22
65369;HTU21D;51970;53.484;49.488;2023-05-29T04:48:28;23.21;58.66
65369;HTU21D;51970;53.484;49.488;2023-05-29T04:51:48;23.25;57.90
65369;HTU21D;51970;53.484;49.488;2023-05-29T04:54:26;23.24;58.15
65369;HTU21D;51970;53.484;49.488;2023-05-29T04:57:04;23.21;57.93
65369;HTU21D;51970;53.484;49.488;2023-05-29T05:00:04;23.06;59.01
65369;HTU21D;51970;53.484;49.488;2023-05-29T05:03:41;22.91;58.48
65369;HTU21D;51970;53.484;49.488;2023-05-29T05:06:31;22.93;58.32
65369;HTU21D;51970;53.484;49.488;2023-05-29T05:09:22;23.08;57.66
65369;HTU21D;51970;53.484;49.488;2023-05-29T05:12:11;23.25;56.03
65369;HTU21D;51970;53.484;49.488;2023-05-29T05:15:31;23.02;56.73
65369;HTU21D;51970;53.484;49.488;2023-05-29T05:18:23;22.95;57.71
65369;HTU21D;51970;53.484;49.488;2023-05-29T05:21:41;23.18;57.76
65369;HTU21D;51970;53.484;49.488;2023-05-29T05:24:42;23.49;55.40
65369;HTU21D;51970;53.484;49.488;2023-05-29T05:27:58;23.55;54.87
65369;HTU21D;51970;53.484;49.488;2023-05-29T05:30:47;23.62;53.47
65369;HTU21D;51970;53.484;49.488;2023-05-29T05:33:59;23.77;51.87
65369;HTU21D;51970;53.484;49.488;2023-05-29T05:36:33;23.85;50.61
65369;HTU21D;51970;53.484;49.488;2023-05-29T05:39:29;23.92;49.36
65369;HTU21D;51970;53.484;49.488;2023-05-29T05:42:50;24.08;46.13
65369;HTU21D;51970;53.484;49.488;2023-05-29T05:46:22;24.10;45.67
65369;HTU21D;51970;53.484;49.488;2023-05-29T05:48:54;23.86;43.47
65369;HTU21D;51970;53.484;49.488;2023-05-29T05:51:29;23.71;45.29
65369;HTU21D;51970;53.484;49.488;2023-05-29T05:54:55;23.96;43.94
65369;HTU21D;51970;53.484;49.488;2023-05-29T05:57:29;23.85;42.97
65369;HTU21D;51970;53.484;49.488;2023-05-29T06:00:36;23.70;43.52
65369;HTU21D;51970;53.484;49.488;2023-05-29T06:03:20;23.80;44.12
65369;HTU21D;51970;53.484;49.488;2023-05-29T06:06:07;24.03;42.36
65369;HTU21D;51970;53.484;49.488;2023-05-29T06:09:26;24.39;42.49
65369;HTU21D;51970;53.484;49.488;2023-05-29T06:12:48;24.59;39.81
65369;HTU21D;51970;53.484;49.488;2023-05-29T06:15:47;24.62;40.01
65369;HTU21D;51970;53.484;49.488;2023-05-29T06:19:00;24.54;39.02
65369;HTU21D;51970;53.484;49.488;2023-05-29T06:21:50;24.63;39.23
65369;HTU21D;51970;53.484;49.488;2023-05-29T06:24:19;24.75;38.36
65369;HTU21D;51970;53.484;49.488;2023-05-29T06:27:16;24.84;37.47
65369;HTU21D;51970;53.484;49.488;2023-05-29T06:30:10;25.02;39.47
65369;HTU21D;51970;53.484;49.488;2023-05-29T06:32:38;24.77;32.02
65369;HTU21D;51970;53.484;49.488;2023-05-29T06:35:10;24.77;31.72
65369;HTU21D;51970;53.484;49.488;2023-05-29T06:38:29;24.72;29.87
65369;HTU21D;51970;53.484;49.488;2023-05-29T06:41:08;24.66;29.68
65369;HTU21D;51970;53.484;49.488;2023-05-29T06:47:48;24.93;31.28
65369;HTU21D;51970;53.484;49.488;2023-05-29T06:50:22;24.63;32.46
65369;HTU21D;51970;53.484;49.488;2023-05-29T06:53:30;24.59;32.05
65369;HTU21D;51970;53.484;49.488;2023-05-29T06:56:23;24.91;35.63
65369;HTU21D;51970;53.484;49.488;2023-05-29T06:59:05;25.10;32.89
65369;HTU21D;51970;53.484;49.488;2023-05-29T07:02:13;25.30;32.76
65369;HTU21D;51970;53.484;49.488;2023-05-29T07:05:13;25.39;27.45
65369;HTU21D;51970;53.484;49.488;2023-05-29T07:12:33;25.16;34.92
65369;HTU21D;51970;53.484;49.488;2023-05-29T07:15:04;24.97;33.71
65369;HTU21D;51970;53.484;49.488;2023-05-29T07:17:35;24.92;33.75
65369;HTU21D;51970;53.484;49.488;2023-05-29T07:20:29;25.04;32.26
65369;HTU21D;51970;53.484;49.488;2023-05-29T07:23:19;24.95;30.87
65369;HTU21D;51970;53.484;49.488;2023-05-29T07:26:55;25.14;33.76
65369;HTU21D;51970;53.484;49.488;2023-05-29T07:29:38;25.06;35.68
65369;HTU21D;51970;53.484;49.488;2023-05-29T07:32:19;25.30;33.62
65369;HTU21D;51970;53.484;49.488;2023-05-29T07:35:37;25.45;31.50
65369;HTU21D;51970;53.484;49.488;2023-05-29T07:39:39;25.58;31.70
65369;HTU21D;51970;53.484;49.488;2023-05-29T07:42:41;25.60;31.45
65369;HTU21D;51970;53.484;49.488;2023-05-29T07:45:23;25.40;29.92
65369;HTU21D;51970;53.484;49.488;2023-05-29T07:48:00;25.18;30.61
65369;HTU21D;51970;53.484;49.488;2023-05-29T07:50:34;25.22;31.04
65369;HTU21D;51970;53.484;49.488;2023-05-29T07:53:10;25.13;30.35
65369;HTU21D;51970;53.484;49.488;2023-05-29T07:56:03;25.43;30.86
65369;HTU21D;51970;53.484;49.488;2023-05-29T07:59:09;25.58;29.10
65369;HTU21D;51970;53.484;49.488;2023-05-29T08:01:38;25.67;29.17
65369;HTU21D;51970;53.484;49.488;2023-05-29T08:04:21;25.82;28.48
65369;HTU21D;51970;53.484;49.488;2023-05-29T08:07:16;25.87;27.65
65369;HTU21D;51970;53.484;49.488;2023-05-29T08:10:48;25.94;27.77
65369;HTU21D;51970;53.484;49.488;2023-05-29T08:13:35;25.91;27.97
65369;HTU21D;51970;53.484;49.488;2023-05-29T08:16:16;25.88;28.02
65369;HTU21D;51970;53.484;49.488;2023-05-29T08:18:52;25.93;28.64
65369;HTU21D;51970;53.484;49.488;2023-05-29T08:21:47;25.87;28.77
65369;HTU21D;51970;53.484;49.488;2023-05-29T08:24:26;25.88;29.15
65369;HTU21D;51970;53.484;49.488;2023-05-29T08:27:09;26.16;28.26
65369;HTU21D;51970;53.484;49.488;2023-05-29T08:30:03;25.95;29.01
65369;HTU21D;51970;53.484;49.488;2023-05-29T08:32:33;25.94;29.37
65369;HTU21D;51970;53.484;49.488;2023-05-29T08:35:37;26.26;29.50
65369;HTU21D;51970;53.484;49.488;2023-05-29T08:38:05;26.25;29.67
65369;HTU21D;51970;53.484;49.488;2023-05-29T08:40:36;26.22;28.85
65369;HTU21D;51970;53.484;49.488;2023-05-29T08:46:22;25.84;28.62
65369;HTU21D;51970;53.484;49.488;2023-05-29T08:49:02;25.72;28.67
65369;HTU21D;51970;53.484;49.488;2023-05-29T08:54:54;26.08;28.75
65369;HTU21D;51970;53.484;49.488;2023-05-29T08:57:43;26.39;29.32
65369;HTU21D;51970;53.484;49.488;2023-05-29T09:00:49;26.50;30.13
65369;HTU21D;51970;53.484;49.488;2023-05-29T09:03:25;26.62;28.20
65369;HTU21D;51970;53.484;49.488;2023-05-29T09:06:01;26.52;29.00
65369;HTU21D;51970;53.484;49.488;2023-05-29T09:08:36;26.63;28.92
65369;HTU21D;51970;53.484;49.488;2023-05-29T09:11:06;26.71;28.26
65369;HTU21D;51970;53.484;49.488;2023-05-29T09:13:35;26.87;29.30
65369;HTU21D;51970;53.484;49.488;2023-05-29T09:16:10;27.10;27.46
65369;HTU21D;51970;53.484;49.488;2023-05-29T09:19:05;26.79;28.29
65369;HTU21D;51970;53.484;49.488;2023-05-29T09:22:08;26.71;28.82
65369;HTU21D;51970;53.484;49.488;2023-05-29T09:24:48;26.58;28.16
65369;HTU21D;51970;53.484;49.488;2023-05-29T09:27:31;26.41;29.34
65369;HTU21D;51970;53.484;49.488;2023-05-29T09:30:47;26.80;28.15
65369;HTU21D;51970;53.484;49.488;2023-05-29T09:33:19;26.60;28.29
65369;HTU21D;51970;53.484;49.488;2023-05-29T09:35:49;26.61;29.38
65369;HTU21D;51970;53.484;49.488;2023-05-29T09:38:31;26.76;29.14
65369;HTU21D;51970;53.484;49.488;2023-05-29T09:41:19;26.75;29.11
65369;HTU21D;51970;53.484;49.488;2023-05-29T09:43:51;26.60;29.21
65369;HTU21D;51970;53.484;49.488;2023-05-29T09:46:59;26.63;29.49
65369;HTU21D;51970;53.484;49.488;2023-05-29T09:49:47;26.63;29.51
65369;HTU21D;51970;53.484;49.488;2023-05-29T09:52:42;26.78;29.15
65369;HTU21D;51970;53.484;49.488;2023-05-29T09:55:15;26.87;29.25
65369;HTU21D;51970;53.484;49.488;2023-05-29T09:58:08;27.09;29.32
65369;HTU21D;51970;53.484;49.488;2023-05-29T10:01:45;26.96;28.56
65369;HTU21D;51970;53.484;49.488;2023-05-29T10:04:40;26.86;29.59
65369;HTU21D;51970;53.484;49.488;2023-05-29T10:07:46;26.92;29.11
65369;HTU21D;51970;53.484;49.488;2023-05-29T10:11:09;26.66;28.61
65369;HTU21D;51970;53.484;49.488;2023-05-29T10:14:26;26.87;28.91
65369;HTU21D;51970;53.484;49.488;2023-05-29T10:17:49;26.65;32.01
65369;HTU21D;51970;53.484;49.488;2023-05-29T10:24:18;26.86;32.31
65369;HTU21D;51970;53.484;49.488;2023-05-29T10:27:32;27.20;30.09
65369;HTU21D;51970;53.484;49.488;2023-05-29T10:31:08;27.24;31.21
65369;HTU21D;51970;53.484;49.488;2023-05-29T10:36:44;27.46;30.37
65369;HTU21D;51970;53.484;49.488;2023-05-29T10:39:39;27.38;30.10
65369;HTU21D;51970;53.484;49.488;2023-05-29T10:42:48;27.27;30.85
65369;HTU21D;51970;53.484;49.488;2023-05-29T10:48:37;26.93;31.49
65369;HTU21D;51970;53.484;49.488;2023-05-29T10:51:48;27.07;31.79
65369;HTU21D;51970;53.484;49.488;2023-05-29T10:54:28;27.24;31.16
65369;HTU21D;51970;53.484;49.488;2023-05-29T10:57:33;27.41;31.03
65369;HTU21D;51970;53.484;49.488;2023-05-29T11:00:31;27.31;31.32
65369;HTU21D;51970;53.484;49.488;2023-05-29T11:03:29;27.25;32.35
65369;HTU21D;51970;53.484;49.488;2023-05-29T11:06:03;27.25;32.71
65369;HTU21D;51970;53.484;49.488;2023-05-29T11:09:36;27.32;32.99
65369;HTU21D;51970;53.484;49.488;2023-05-29T11:13:01;27.23;32.89
65369;HTU21D;51970;53.484;49.488;2023-05-29T11:19:41;27.19;33.41
65369;HTU21D;51970;53.484;49.488;2023-05-29T11:25:41;27.29;33.36
65369;HTU21D;51970;53.484;49.488;2023-05-29T11:29:07;27.40;32.91
65369;HTU21D;51970;53.484;49.488;2023-05-29T11:31:48;27.51;32.52
65369;HTU21D;51970;53.484;49.488;2023-05-29T11:34:32;27.72;31.86
65369;HTU21D;51970;53.484;49.488;2023-05-29T11:37:18;27.25;32.77
65369;HTU21D;51970;53.484;49.488;2023-05-29T11:40:06;27.11;32.78
65369;HTU21D;51970;53.484;49.488;2023-05-29T11:43:16;27.26;33.02
65369;HTU21D;51970;53.484;49.488;2023-05-29T11:45:44;27.42;32.10
65369;HTU21D;51970;53.484;49.488;2023-05-29T11:48:28;27.10;32.94
65369;HTU21D;51970;53.484;49.488;2023-05-29T11:51:06;26.98;32.93
65369;HTU21D;51970;53.484;49.488;2023-05-29T11:53:55;27.08;33.47
65369;HTU21D;51970;53.484;49.488;2023-05-29T11:56:52;27.60;32.84
65369;HTU21D;51970;53.484;49.488;2023-05-29T11:59:29;27.67;32.67
65369;HTU21D;51970;53.484;49.488;2023-05-29T12:02:12;27.54;33.57
65369;HTU21D;51970;53.484;49.488;2023-05-29T12:05:08;27.41;32.90
65369;HTU21D;51970;53.484;49.488;2023-05-29T12:08:29;27.73;32.60
65369;HTU21D;51970;53.484;49.488;2023-05-29T12:11:11;27.51;33.62
65369;HTU21D;51970;53.484;49.488;2023-05-29T12:14:00;27.54;34.41
65369;HTU21D;51970;53.484;49.488;2023-05-29T12:16:29;27.57;34.75
65369;HTU21D;51970;53.484;49.488;2023-05-29T12:19:01;27.66;34.36
65369;HTU21D;51970;53.484;49.488;2023-05-29T12:21:43;27.75;33.43
65369;HTU21D;51970;53.484;49.488;2023-05-29T12:24:39;27.35;32.75
65369;HTU21D;51970;53.484;49.488;2023-05-29T12:27:24;26.96;33.68
65369;HTU21D;51970;53.484;49.488;2023-05-29T12:30:02;26.86;32.99
65369;HTU21D;51970;53.484;49.488;2023-05-29T12:32:38;26.64;34.66
65369;HTU21D;51970;53.484;49.488;2023-05-29T12:35:17;26.89;34.42
65369;HTU21D;51970;53.484;49.488;2023-05-29T12:38:02;26.67;33.99
65369;HTU21D;51970;53.484;49.488;2023-05-29T12:40:38;26.42;33.06
65369;HTU21D;51970;53.484;49.488;2023-05-29T12:43:29;26.37;33.60
65369;HTU21D;51970;53.484;49.488;2023-05-29T12:46:18;26.60;35.21
65369;HTU21D;51970;53.484;49.488;2023-05-29T12:48:46;26.81;35.31
65369;HTU21D;51970;53.484;49.488;2023-05-29T12:51:45;26.40;32.88
65369;HTU21D;51970;53.484;49.488;2023-05-29T12:54:20;26.17;32.50
65369;HTU21D;51970;53.484;49.488;2023-05-29T12:57:00;26.05;32.95
65369;HTU21D;51970;53.484;49.488;2023-05-29T12:59:52;26.28;32.34
65369;HTU21D;51970;53.484;49.488;2023-05-29T13:02:30;26.09;32.40
65369;HTU21D;51970;53.484;49.488;2023-05-29T13:05:29;25.88;32.54
65369;HTU21D;51970;53.484;49.488;2023-05-29T13:08:12;25.97;32.80
65369;HTU21D;51970;53.484;49.488;2023-05-29T13:10:40;26.16;30.84
65369;HTU21D;51970;53.484;49.488;2023-05-29T13:13:17;26.01;30.79
65369;HTU21D;51970;53.484;49.488;2023-05-29T13:16:08;25.84;30.48
65369;HTU21D;51970;53.484;49.488;2023-05-29T13:18:48;25.80;30.83
65369;HTU21D;51970;53.484;49.488;2023-05-29T13:21:23;26.02;30.49
65369;HTU21D;51970;53.484;49.488;2023-05-29T13:23:56;26.17;30.75
65369;HTU21D;51970;53.484;49.488;2023-05-29T13:26:32;26.42;29.58
65369;HTU21D;51970;53.484;49.488;2023-05-29T13:29:00;26.27;28.34
65369;HTU21D;51970;53.484;49.488;2023-05-29T13:31:32;26.19;28.96
65369;HTU21D;51970;53.484;49.488;2023-05-29T13:34:13;26.16;28.29
65369;HTU21D;51970;53.484;49.488;2023-05-29T13:36:56;26.02;29.16
65369;HTU21D;51970;53.484;49.488;2023-05-29T13:39:34;25.96;29.10
65369;HTU21D;51970;53.484;49.488;2023-05-29T13:42:15;26.04;29.19
65369;HTU21D;51970;53.484;49.488;2023-05-29T13:44:49;25.88;28.58
65369;HTU21D;51970;53.484;49.488;2023-05-29T13:47:35;25.92;28.61
65369;HTU21D;51970;53.484;49.488;2023-05-29T13:50:07;25.84;28.27
65369;HTU21D;51970;53.484;49.488;2023-05-29T13:52:40;25.86;27.07
65369;HTU21D;51970;53.484;49.488;2023-05-29T13:55:57;25.77;27.35
65369;HTU21D;51970;53.484;49.488;2023-05-29T13:58:37;25.88;26.27
65369;HTU21D;51970;53.484;49.488;2023-05-29T14:01:08;25.96;25.88
65369;HTU21D;51970;53.484;49.488;2023-05-29T14:03:40;26.31;25.39
65369;HTU21D;51970;53.484;49.488;2023-05-29T14:06:09;26.67;24.88
65369;HTU21D;51970;53.484;49.488;2023-05-29T14:09:03;26.53;24.79
65369;HTU21D;51970;53.484;49.488;2023-05-29T14:11:45;26.33;24.72
65369;HTU21D;51970;53.484;49.488;2023-05-29T14:14:23;25.67;25.74
65369;HTU21D;51970;53.484;49.488;2023-05-29T14:16:55;25.61;26.83
65369;HTU21D;51970;53.484;49.488;2023-05-29T14:19:29;25.65;25.76
65369;HTU21D;51970;53.484;49.488;2023-05-29T14:22:00;25.59;25.94
65369;HTU21D;51970;53.484;49.488;2023-05-29T14:24:36;25.61;26.25
65369;HTU21D;51970;53.484;49.488;2023-05-29T14:27:13;25.50;25.75
65369;HTU21D;51970;53.484;49.488;2023-05-29T14:29:52;25.37;25.56
65369;HTU21D;51970;53.484;49.488;2023-05-29T14:32:38;25.38;25.46
65369;HTU21D;51970;53.484;49.488;2023-05-29T14:35:15;25.35;25.58
65369;HTU21D;51970;53.484;49.488;2023-05-29T14:38:07;25.35;26.24
65369;HTU21D;51970;53.484;49.488;2023-05-29T14:40:39;25.28;26.10
65369;HTU21D;51970;53.484;49.488;2023-05-29T14:43:12;25.28;26.62
65369;HTU21D;51970;53.484;49.488;2023-05-29T14:46:05;25.23;26.90
65369;HTU21D;51970;53.484;49.488;2023-05-29T14:48:44;25.09;27.55
65369;HTU21D;51970;53.484;49.488;2023-05-29T14:51:34;24.77;28.52
65369;HTU21D;51970;53.484;49.488;2023-05-29T14:54:04;24.63;28.68
65369;HTU21D;51970;53.484;49.488;2023-05-29T14:56:39;24.49;28.64
65369;HTU21D;51970;53.484;49.488;2023-05-29T14:59:29;24.32;29.04
65369;HTU21D;51970;53.484;49.488;2023-05-29T15:02:31;24.27;29.32
65369;HTU21D;51970;53.484;49.488;2023-05-29T15:05:04;24.24;29.34
65369;HTU21D;51970;53.484;49.488;2023-05-29T15:07:40;24.20;29.03
65369;HTU21D;51970;53.484;49.488;2023-05-29T15:10:08;24.11;29.08
65369;HTU21D;51970;53.484;49.488;2023-05-29T15:12:46;24.02;29.45
65369;HTU21D;51970;53.484;49.488;2023-05-29T15:15:23;23.98;29.16
65369;HTU21D;51970;53.484;49.488;2023-05-29T15:17:54;23.91;29.58
65369;HTU21D;51970;53.484;49.488;2023-05-29T15:20:35;23.84;29.50
65369;HTU21D;51970;53.484;49.488;2023-05-29T15:23:09;23.76;29.87
65369;HTU21D;51970;53.484;49.488;2023-05-29T15:25:40;23.69;29.61
65369;HTU21D;51970;53.484;49.488;2023-05-29T15:28:12;23.65;29.94
65369;HTU21D;51970;53.484;49.488;2023-05-29T15:30:48;23.60;29.67
65369;HTU21D;51970;53.484;49.488;2023-05-29T15:33:15;23.50;29.26
65369;HTU21D;51970;53.484;49.488;2023-05-29T15:35:48;23.44;29.61
65369;HTU21D;51970;53.484;49.488;2023-05-29T15:38:31;23.40;29.35
65369;HTU21D;51970;53.484;49.488;2023-05-29T15:41:07;23.31;29.19
65369;HTU21D;51970;53.484;49.488;2023-05-29T15:43:55;23.25;29.47
65369;HTU21D;51970;53.484;49.488;2023-05-29T15:46:34;23.23;29.63
65369;HTU21D;51970;53.484;49.488;2023-05-29T15:49:11;23.20;29.65
65369;HTU21D;51970;53.484;49.488;2023-05-29T15:51:52;23.08;30.06
65369;HTU21D;51970;53.484;49.488;2023-05-29T15:54:34;22.99;30.51
65369;HTU21D;51970;53.484;49.488;2023-05-29T15:57:14;22.95;30.45
65369;HTU21D;51970;53.484;49.488;2023-05-29T15:59:46;22.94;30.64
65369;HTU21D;51970;53.484;49.488;2023-05-29T16:02:19;22.93;30.87
65369;HTU21D;51970;53.484;49.488;2023-05-29T16:04:48;22.86;31.21
65369;HTU21D;51970;53.484;49.488;2023-05-29T16:07:32;22.76;31.79
65369;HTU21D;51970;53.484;49.488;2023-05-29T16:10:05;22.67;32.03
65369;HTU21D;51970;53.484;49.488;2023-05-29T16:12:44;22.58;32.28
65369;HTU21D;51970;53.484;49.488;2023-05-29T16:15:25;22.55;32.23
65369;HTU21D;51970;53.484;49.488;2023-05-29T16:18:04;22.52;32.29
65369;HTU21D;51970;53.484;49.488;2023-05-29T16:20:44;22.49;32.17
65369;HTU21D;51970;53.484;49.488;2023-05-29T16:23:22;22.40;32.12
65369;HTU21D;51970;53.484;49.488;2023-05-29T16:26:00;22.32;32.56
65369;HTU21D;51970;53.484;49.488;2023-05-29T16:28:57;22.22;32.80
65369;HTU21D;51970;53.484;49.488;2023-05-29T16:31:37;22.18;33.18
65369;HTU21D;51970;53.484;49.488;2023-05-29T16:34:10;22.10;33.30
65369;HTU21D;51970;53.484;49.488;2023-05-29T16:36:54;22.03;33.53
65369;HTU21D;51970;53.484;49.488;2023-05-29T16:39:22;21.98;33.65
65369;HTU21D;51970;53.484;49.488;2023-05-29T16:41:51;21.91;33.55
65369;HTU21D;51970;53.484;49.488;2023-05-29T16:44:28;21.88;33.67
65369;HTU21D;51970;53.484;49.488;2023-05-29T16:47:21;21.84;33.79
65369;HTU21D;51970;53.484;49.488;2023-05-29T16:50:02;21.79;33.79
65369;HTU21D;51970;53.484;49.488;2023-05-29T16:52:30;21.74;33.75
65369;HTU21D;51970;53.484;49.488;2023-05-29T16:55:00;21.69;33.82
65369;HTU21D;51970;53.484;49.488;2023-05-29T16:57:28;21.65;33.82
65369;HTU21D;51970;53.484;49.488;2023-05-29T16:59:59;21.61;33.70
65369;HTU21D;51970;53.484;49.488;2023-05-29T17:02:33;21.55;33.95
65369;HTU21D;51970;53.484;49.488;2023-05-29T17:05:27;21.49;34.10
65369;HTU21D;51970;53.484;49.488;2023-05-29T17:08:00;21.43;34.47
65369;HTU21D;51970;53.484;49.488;2023-05-29T17:10:32;21.40;34.51
65369;HTU21D;51970;53.484;49.488;2023-05-29T17:13:01;21.34;34.50
65369;HTU21D;51970;53.484;49.488;2023-05-29T17:15:43;21.31;34.85
65369;HTU21D;51970;53.484;49.488;2023-05-29T17:18:21;21.23;35.03
65369;HTU21D;51970;53.484;49.488;2023-05-29T17:20:55;21.18;35.49
65369;HTU21D;51970;53.484;49.488;2023-05-29T17:23:43;21.11;35.44
65369;HTU21D;51970;53.484;49.488;2023-05-29T17:26:25;21.09;35.56
65369;HTU21D;51970;53.484;49.488;2023-05-29T17:29:04;21.02;35.74
65369;HTU21D;51970;53.484;49.488;2023-05-29T17:31:45;20.94;36.28
65369;HTU21D;51970;53.484;49.488;2023-05-29T17:34:24;20.87;36.99
65369;HTU21D;51970;53.484;49.488;2023-05-29T17:37:19;20.74;37.88
65369;HTU21D;51970;53.484;49.488;2023-05-29T17:39:59;20.61;38.69
65369;HTU21D;51970;53.484;49.488;2023-05-29T17:42:35;20.55;39.52
65369;HTU21D;51970;53.484;49.488;2023-05-29T17:45:12;20.46;40.01
65369;HTU21D;51970;53.484;49.488;2023-05-29T17:47:59;20.36;40.65
65369;HTU21D;51970;53.484;49.488;2023-05-29T17:50:48;20.26;41.16
65369;HTU21D;51970;53.484;49.488;2023-05-29T17:53:24;20.21;41.59
65369;HTU21D;51970;53.484;49.488;2023-05-29T17:56:12;20.16;42.01
65369;HTU21D;51970;53.484;49.488;2023-05-29T17:58:42;20.17;42.33
65369;HTU21D;51970;53.484;49.488;2023-05-29T18:01:44;20.09;42.89
65369;HTU21D;51970;53.484;49.488;2023-05-29T18:04:34;20.06;43.39
65369;HTU21D;51970;53.484;49.488;2023-05-29T18:07:10;19.99;43.88